Sterling, OH (44276)

2:33 PM EDT on August 30, 2015 (GMT -0400)
Guilford Twp, Rawiga Rd | | Change Station
CLOSE
Current Station
Personal Weather Station
Location: Seville, OH
Elevation: 1120 ft
Nearby Weather Stations

Elev 1120 ft 41.00 °N, 81.82 °W | Updated 7 seconds ago

Partly Cloudy
Partly Cloudy
80.6 °F
Feels Like 85 °F
N
0.0
Wind Variable Wind from North
Gusts 5.0 mph

Today
High -- | Low -- °F
--% Chance of Precip.
Yesterday
High -- | Low -- °F
Precip. -- in
6:51 AM 8:03 PM
Full, 98% visible
Pressure 30.09 in
Visibility 10.0 miles
Clouds Few 2200 ft
Heat Index 85 °F
Dew Point 72 °F
Humidity 75%
Rainfall 0.37 in
Snow Depth Not available.
UV 9 out of 12
Pollen 9.40 out of 12
Air Quality Not available.
Flu Activity Not available.
METAR KBJJ 301756Z AUTO 23007KT 200V270 10SM FEW022 28/21 A3011 RMK AO2 SLP189 T02780206 10278 20189 58011 TSNO
Pressure 30.09 in
Visibility 10.0 miles
Clouds Few 2200 ft
Heat Index 85 °F
Dew Point 72 °F
Humidity 75%
Rainfall 0.37 in
Snow Depth Not available.
UV 9 out of 12
Pollen 9.40 out of 12
Air Quality Not available.
Flu Activity Not available.
METAR KBJJ 301756Z AUTO 23007KT 200V270 10SM FEW022 28/21 A3011 RMK AO2 SLP189 T02780206 10278 20189 58011 TSNO

10-Day Weather Forecast

×

Almanac

Astronomy

Aug. 30, 2015 Rise Set
Actual Time
Civil Twilight
Nautical Twilight
Astronomical Twilight
Moon
Length of Visible Light
Length of Day
Tomorrow will be .
, % of the Moon is Illuminated

Today's Extremes

State Highs State Lows

Community

WunderPhotos

Upload Photos

1,851,031 photos uploaded!

WunderBlogs® & News

Nearby

Air Quality

  Air Quality AQ Index Pollutant
Not available.

Snow Depth

Station Depth Elevation

Earthquake Activity

City Distance Mag. Time & Date
Minimum magnitude displayed is 2.5.

Coastal Water Temperatures

Place Temperature

Stations

Nearby Weather Stations

Station Location Temp. Windchill Dew Point Humidity Wind Precip. Elev Updated Type